sensor_id;sensor_type;location;lat;lon;timestamp;pressure;altitude;pressure_sealevel;temperature
67599;BMP280;62026;39.230;9.122;2022-09-27T00:01:00;100507.19;;;22.40
67599;BMP280;62026;39.230;9.122;2022-09-27T00:03:28;100497.91;;;22.33
67599;BMP280;62026;39.230;9.122;2022-09-27T00:08:46;100491.47;;;22.34
67599;BMP280;62026;39.230;9.122;2022-09-27T00:11:38;100494.47;;;22.32
67599;BMP280;62026;39.230;9.122;2022-09-27T00:14:06;100489.66;;;22.29
67599;BMP280;62026;39.230;9.122;2022-09-27T00:16:36;100489.84;;;22.33
67599;BMP280;62026;39.230;9.122;2022-09-27T00:19:16;100497.16;;;22.32
67599;BMP280;62026;39.230;9.122;2022-09-27T00:21:44;100497.25;;;22.27
67599;BMP280;62026;39.230;9.122;2022-09-27T00:24:17;100494.03;;;22.25
67599;BMP280;62026;39.230;9.122;2022-09-27T00:26:44;100492.16;;;22.26
67599;BMP280;62026;39.230;9.122;2022-09-27T00:29:13;100489.47;;;22.26
67599;BMP280;62026;39.230;9.122;2022-09-27T00:31:40;100464.16;;;22.13
67599;BMP280;62026;39.230;9.122;2022-09-27T00:34:13;100472.94;;;22.19
67599;BMP280;62026;39.230;9.122;2022-09-27T00:36:41;100476.41;;;22.19
67599;BMP280;62026;39.230;9.122;2022-09-27T00:39:08;100477.50;;;22.18
67599;BMP280;62026;39.230;9.122;2022-09-27T00:41:35;100468.53;;;22.09
67599;BMP280;62026;39.230;9.122;2022-09-27T00:49:56;100464.16;;;22.13
67599;BMP280;62026;39.230;9.122;2022-09-27T00:52:43;100452.38;;;22.09
67599;BMP280;62026;39.230;9.122;2022-09-27T00:55:19;100438.19;;;21.90
67599;BMP280;62026;39.230;9.122;2022-09-27T00:57:47;100452.38;;;21.95
67599;BMP280;62026;39.230;9.122;2022-09-27T01:00:15;100456.06;;;21.99
67599;BMP280;62026;39.230;9.122;2022-09-27T01:02:48;100453.66;;;21.98
67599;BMP280;62026;39.230;9.122;2022-09-27T01:05:19;100459.53;;;22.00
67599;BMP280;62026;39.230;9.122;2022-09-27T01:07:46;100452.09;;;21.97
67599;BMP280;62026;39.230;9.122;2022-09-27T01:10:15;100459.34;;;21.96
67599;BMP280;62026;39.230;9.122;2022-09-27T01:18:42;100450.97;;;21.98
67599;BMP280;62026;39.230;9.122;2022-09-27T01:21:43;100452.63;;;21.94
67599;BMP280;62026;39.230;9.122;2022-09-27T01:24:19;100441.78;;;21.85
67599;BMP280;62026;39.230;9.122;2022-09-27T01:32:50;100464.59;;;21.88
67599;BMP280;62026;39.230;9.122;2022-09-27T01:38:44;100472.06;;;21.91
67599;BMP280;62026;39.230;9.122;2022-09-27T01:47:18;100433.28;;;21.65
67599;BMP280;62026;39.230;9.122;2022-09-27T01:50:08;100452.22;;;21.73
67599;BMP280;62026;39.230;9.122;2022-09-27T01:52:47;100443.84;;;21.75
67599;BMP280;62026;39.230;9.122;2022-09-27T01:55:20;100447.63;;;21.74
67599;BMP280;62026;39.230;9.122;2022-09-27T02:01:04;100451.91;;;21.75
67599;BMP280;62026;39.230;9.122;2022-09-27T02:03:46;100448.91;;;21.76
67599;BMP280;62026;39.230;9.122;2022-09-27T02:06:44;100445.25;;;21.72
67599;BMP280;62026;39.230;9.122;2022-09-27T02:09:45;100443.34;;;21.73
67599;BMP280;62026;39.230;9.122;2022-09-27T02:12:24;100434.75;;;21.71
67599;BMP280;62026;39.230;9.122;2022-09-27T02:15:05;100443.94;;;21.70
67599;BMP280;62026;39.230;9.122;2022-09-27T02:23:21;100440.72;;;21.68
67599;BMP280;62026;39.230;9.122;2022-09-27T02:26:01;100440.72;;;21.68
67599;BMP280;62026;39.230;9.122;2022-09-27T02:31:23;100425.78;;;21.61
67599;BMP280;62026;39.230;9.122;2022-09-27T02:33:59;100432.19;;;21.66
67599;BMP280;62026;39.230;9.122;2022-09-27T02:36:26;100422.59;;;21.59
67599;BMP280;62026;39.230;9.122;2022-09-27T02:38:53;100427.28;;;21.68
67599;BMP280;62026;39.230;9.122;2022-09-27T02:41:22;100420.41;;;21.61
67599;BMP280;62026;39.230;9.122;2022-09-27T02:43:56;100419.31;;;21.62
67599;BMP280;62026;39.230;9.122;2022-09-27T02:56:23;100426.28;;;21.63
67599;BMP280;62026;39.230;9.122;2022-09-27T03:00:06;100426.88;;;21.60
67599;BMP280;62026;39.230;9.122;2022-09-27T03:03:49;100419.00;;;21.64
67599;BMP280;62026;39.230;9.122;2022-09-27T03:06:11;100425.78;;;21.61
67599;BMP280;62026;39.230;9.122;2022-09-27T03:08:38;100428.16;;;21.63
67599;BMP280;62026;39.230;9.122;2022-09-27T03:11:06;100428.97;;;21.63
67599;BMP280;62026;39.230;9.122;2022-09-27T03:13:33;100421.19;;;21.62
67599;BMP280;62026;39.230;9.122;2022-09-27T03:16:01;100416.41;;;21.59
67599;BMP280;62026;39.230;9.122;2022-09-27T03:18:46;100418.31;;;21.58
67599;BMP280;62026;39.230;9.122;2022-09-27T03:21:31;100415.72;;;21.53
67599;BMP280;62026;39.230;9.122;2022-09-27T03:23:57;100408.69;;;21.57
67599;BMP280;62026;39.230;9.122;2022-09-27T03:26:24;100405.84;;;21.49
67599;BMP280;62026;39.230;9.122;2022-09-27T03:28:50;100417.88;;;21.51
67599;BMP280;62026;39.230;9.122;2022-09-27T03:31:17;100417.41;;;21.49
67599;BMP280;62026;39.230;9.122;2022-09-27T03:33:50;100418.22;;;21.50
67599;BMP280;62026;39.230;9.122;2022-09-27T03:36:17;100422.16;;;21.52
67599;BMP280;62026;39.230;9.122;2022-09-27T03:38:43;100413.09;;;21.48
67599;BMP280;62026;39.230;9.122;2022-09-27T03:41:12;100417.88;;;21.51
67599;BMP280;62026;39.230;9.122;2022-09-27T03:43:39;100420.94;;;21.45
67599;BMP280;62026;39.230;9.122;2022-09-27T03:46:05;100415.88;;;21.43
67599;BMP280;62026;39.230;9.122;2022-09-27T03:48:31;100418.25;;;21.45
67599;BMP280;62026;39.230;9.122;2022-09-27T03:50:58;100415.25;;;21.46
67599;BMP280;62026;39.230;9.122;2022-09-27T03:53:24;100427.13;;;21.45
67599;BMP280;62026;39.230;9.122;2022-09-27T03:55:51;100420.16;;;21.44
67599;BMP280;62026;39.230;9.122;2022-09-27T03:58:17;100416.97;;;21.42
67599;BMP280;62026;39.230;9.122;2022-09-27T04:00:45;100420.16;;;21.44
67599;BMP280;62026;39.230;9.122;2022-09-27T04:03:11;100415.94;;;21.38
67599;BMP280;62026;39.230;9.122;2022-09-27T04:05:44;100399.38;;;21.31
67599;BMP280;62026;39.230;9.122;2022-09-27T04:08:15;100410.56;;;21.38
67599;BMP280;62026;39.230;9.122;2022-09-27T04:10:42;100421.25;;;21.43
67599;BMP280;62026;39.230;9.122;2022-09-27T04:13:08;100422.84;;;21.44
67599;BMP280;62026;39.230;9.122;2022-09-27T04:15:42;100424.44;;;21.45
67599;BMP280;62026;39.230;9.122;2022-09-27T04:18:43;100427.97;;;21.41
67599;BMP280;62026;39.230;9.122;2022-09-27T04:21:29;100421.28;;;21.38
67599;BMP280;62026;39.230;9.122;2022-09-27T04:23:56;100417.91;;;21.33
67599;BMP280;62026;39.230;9.122;2022-09-27T04:26:22;100415.72;;;21.35
67599;BMP280;62026;39.230;9.122;2022-09-27T04:29:10;100420.31;;;21.34
67599;BMP280;62026;39.230;9.122;2022-09-27T04:31:40;100410.44;;;21.30
67599;BMP280;62026;39.230;9.122;2022-09-27T04:34:34;100412.53;;;21.33
67599;BMP280;62026;39.230;9.122;2022-09-27T04:37:22;100408.34;;;21.27
67599;BMP280;62026;39.230;9.122;2022-09-27T04:39:52;100410.13;;;21.31
67599;BMP280;62026;39.230;9.122;2022-09-27T04:42:18;100404.28;;;21.29
67599;BMP280;62026;39.230;9.122;2022-09-27T04:44:44;100404.28;;;21.29
67599;BMP280;62026;39.230;9.122;2022-09-27T04:47:12;100401.00;;;21.32
67599;BMP280;62026;39.230;9.122;2022-09-27T04:49:40;100395.63;;;21.32
67599;BMP280;62026;39.230;9.122;2022-09-27T04:52:07;100400.47;;;21.30
67599;BMP280;62026;39.230;9.122;2022-09-27T04:54:33;100396.13;;;21.34
67599;BMP280;62026;39.230;9.122;2022-09-27T04:57:09;100376.50;;;21.20
67599;BMP280;62026;39.230;9.122;2022-09-27T04:59:37;100379.50;;;21.32
67599;BMP280;62026;39.230;9.122;2022-09-27T05:02:06;100381.69;;;21.30
67599;BMP280;62026;39.230;9.122;2022-09-27T05:05:04;100383.28;;;21.31
67599;BMP280;62026;39.230;9.122;2022-09-27T05:07:36;100387.66;;;21.27
67599;BMP280;62026;39.230;9.122;2022-09-27T05:10:08;100386.63;;;21.23
67599;BMP280;62026;39.230;9.122;2022-09-27T05:12:35;100398.97;;;21.24
67599;BMP280;62026;39.230;9.122;2022-09-27T05:15:03;100375.03;;;21.09
67599;BMP280;62026;39.230;9.122;2022-09-27T05:17:29;100390.47;;;21.17
67599;BMP280;62026;39.230;9.122;2022-09-27T05:20:14;100392.97;;;21.13
67599;BMP280;62026;39.230;9.122;2022-09-27T05:22:51;100400.38;;;21.21
67599;BMP280;62026;39.230;9.122;2022-09-27T05:25:18;100394.19;;;21.21
67599;BMP280;62026;39.230;9.122;2022-09-27T05:27:44;100399.34;;;21.17
67599;BMP280;62026;39.230;9.122;2022-09-27T05:30:12;100389.97;;;21.15
67599;BMP280;62026;39.230;9.122;2022-09-27T05:32:46;100392.06;;;21.18
67599;BMP280;62026;39.230;9.122;2022-09-27T05:35:41;100381.22;;;21.09
67599;BMP280;62026;39.230;9.122;2022-09-27T05:38:09;100406.69;;;21.12
67599;BMP280;62026;39.230;9.122;2022-09-27T05:40:38;100399.75;;;21.06
67599;BMP280;62026;39.230;9.122;2022-09-27T05:43:06;100391.78;;;21.01
67599;BMP280;62026;39.230;9.122;2022-09-27T05:45:32;100401.97;;;21.04
67599;BMP280;62026;39.230;9.122;2022-09-27T05:48:02;100401.31;;;21.12
67599;BMP280;62026;39.230;9.122;2022-09-27T05:50:31;100395.94;;;21.12
67599;BMP280;62026;39.230;9.122;2022-09-27T05:52:57;100377.94;;;21.12
67599;BMP280;62026;39.230;9.122;2022-09-27T05:55:23;100392.22;;;21.27
67599;BMP280;62026;39.230;9.122;2022-09-27T05:57:59;100391.34;;;21.31
67599;BMP280;62026;39.230;9.122;2022-09-27T06:00:33;100385.31;;;21.39
67599;BMP280;62026;39.230;9.122;2022-09-27T06:03:05;100383.41;;;21.40
67599;BMP280;62026;39.230;9.122;2022-09-27T06:05:52;100383.53;;;21.48
67599;BMP280;62026;39.230;9.122;2022-09-27T06:08:41;100393.91;;;21.55
67599;BMP280;62026;39.230;9.122;2022-09-27T06:11:12;100394.84;;;21.64
67599;BMP280;62026;39.230;9.122;2022-09-27T06:13:39;100382.28;;;21.59
67599;BMP280;62026;39.230;9.122;2022-09-27T06:16:09;100410.50;;;21.76
67599;BMP280;62026;39.230;9.122;2022-09-27T06:18:36;100411.72;;;21.83
67599;BMP280;62026;39.230;9.122;2022-09-27T06:21:04;100404.78;;;21.96
67599;BMP280;62026;39.230;9.122;2022-09-27T06:23:32;100398.09;;;21.93
67599;BMP280;62026;39.230;9.122;2022-09-27T06:26:05;100411.06;;;22.05
67599;BMP280;62026;39.230;9.122;2022-09-27T06:28:40;100424.63;;;22.27
67599;BMP280;62026;39.230;9.122;2022-09-27T06:31:07;100407.47;;;22.37
67599;BMP280;62026;39.230;9.122;2022-09-27T06:33:53;100405.28;;;22.53
67599;BMP280;62026;39.230;9.122;2022-09-27T06:36:20;100402.97;;;22.60
67599;BMP280;62026;39.230;9.122;2022-09-27T06:38:46;100398.09;;;22.62
67599;BMP280;62026;39.230;9.122;2022-09-27T06:41:21;100408.34;;;22.73
67599;BMP280;62026;39.230;9.122;2022-09-27T06:43:53;100408.44;;;22.82
67599;BMP280;62026;39.230;9.122;2022-09-27T06:46:38;100408.50;;;22.91
67599;BMP280;62026;39.230;9.122;2022-09-27T06:49:10;100408.50;;;22.91
67599;BMP280;62026;39.230;9.122;2022-09-27T06:51:38;100414.44;;;23.01
67599;BMP280;62026;39.230;9.122;2022-09-27T06:54:04;100407.63;;;23.17
67599;BMP280;62026;39.230;9.122;2022-09-27T06:56:31;100415.16;;;23.29
67599;BMP280;62026;39.230;9.122;2022-09-27T06:58:57;100414.38;;;23.29
67599;BMP280;62026;39.230;9.122;2022-09-27T07:01:43;100414.56;;;23.32
67599;BMP280;62026;39.230;9.122;2022-09-27T07:04:28;100423.69;;;23.45
67599;BMP280;62026;39.230;9.122;2022-09-27T07:07:23;100419.81;;;23.60
67599;BMP280;62026;39.230;9.122;2022-09-27T07:09:49;100414.63;;;23.63
67599;BMP280;62026;39.230;9.122;2022-09-27T07:12:15;100417.47;;;23.67
67599;BMP280;62026;39.230;9.122;2022-09-27T07:14:42;100409.69;;;23.65
67599;BMP280;62026;39.230;9.122;2022-09-27T07:17:14;100404.53;;;23.77
67599;BMP280;62026;39.230;9.122;2022-09-27T07:19:43;100409.66;;;23.87
67599;BMP280;62026;39.230;9.122;2022-09-27T07:22:10;100401.69;;;24.22
67599;BMP280;62026;39.230;9.122;2022-09-27T07:24:37;100407.16;;;24.39
67599;BMP280;62026;39.230;9.122;2022-09-27T07:27:04;100391.88;;;24.34
67599;BMP280;62026;39.230;9.122;2022-09-27T07:29:31;100395.53;;;24.39
67599;BMP280;62026;39.230;9.122;2022-09-27T07:31:58;100394.91;;;24.50
67599;BMP280;62026;39.230;9.122;2022-09-27T07:34:26;100389.84;;;24.57
67599;BMP280;62026;39.230;9.122;2022-09-27T07:36:58;100385.91;;;24.72
67599;BMP280;62026;39.230;9.122;2022-09-27T07:39:24;100380.81;;;24.79
67599;BMP280;62026;39.230;9.122;2022-09-27T07:41:50;100390.59;;;25.35
67599;BMP280;62026;39.230;9.122;2022-09-27T07:44:17;100382.00;;;25.42
67599;BMP280;62026;39.230;9.122;2022-09-27T07:47:07;100398.41;;;25.75
67599;BMP280;62026;39.230;9.122;2022-09-27T07:50:08;100373.41;;;25.48
67599;BMP280;62026;39.230;9.122;2022-09-27T07:52:56;100400.84;;;25.68
67599;BMP280;62026;39.230;9.122;2022-09-27T07:55:41;100404.97;;;25.74
67599;BMP280;62026;39.230;9.122;2022-09-27T07:58:11;100385.06;;;25.78
67599;BMP280;62026;39.230;9.122;2022-09-27T08:00:38;100414.38;;;25.97
67599;BMP280;62026;39.230;9.122;2022-09-27T08:03:11;100409.00;;;25.59
67599;BMP280;62026;39.230;9.122;2022-09-27T08:05:47;100403.06;;;25.10
67599;BMP280;62026;39.230;9.122;2022-09-27T08:08:15;100406.03;;;25.43
67599;BMP280;62026;39.230;9.122;2022-09-27T08:10:43;100399.91;;;25.64
67599;BMP280;62026;39.230;9.122;2022-09-27T08:13:11;100413.59;;;25.58
67599;BMP280;62026;39.230;9.122;2022-09-27T08:15:37;100421.75;;;25.88
67599;BMP280;62026;39.230;9.122;2022-09-27T08:18:08;100425.13;;;26.14
67599;BMP280;62026;39.230;9.122;2022-09-27T08:20:59;100407.19;;;25.80
67599;BMP280;62026;39.230;9.122;2022-09-27T08:23:37;100415.16;;;26.06
67599;BMP280;62026;39.230;9.122;2022-09-27T08:26:22;100418.81;;;26.10
67599;BMP280;62026;39.230;9.122;2022-09-27T08:29:17;100419.41;;;26.45
67599;BMP280;62026;39.230;9.122;2022-09-27T08:31:51;100421.47;;;25.81
67599;BMP280;62026;39.230;9.122;2022-09-27T08:34:19;100426.94;;;25.64
67599;BMP280;62026;39.230;9.122;2022-09-27T08:36:46;100434.47;;;25.41
67599;BMP280;62026;39.230;9.122;2022-09-27T08:39:12;100436.72;;;25.22
67599;BMP280;62026;39.230;9.122;2022-09-27T08:42:36;100423.09;;;25.01
67599;BMP280;62026;39.230;9.122;2022-09-27T08:45:17;100429.44;;;24.88
67599;BMP280;62026;39.230;9.122;2022-09-27T08:47:54;100424.97;;;24.83
67599;BMP280;62026;39.230;9.122;2022-09-27T08:50:34;100435.94;;;24.69
67599;BMP280;62026;39.230;9.122;2022-09-27T08:53:33;100427.53;;;24.80
67599;BMP280;62026;39.230;9.122;2022-09-27T08:56:00;100425.91;;;25.39
67599;BMP280;62026;39.230;9.122;2022-09-27T09:01:23;100415.78;;;26.62
67599;BMP280;62026;39.230;9.122;2022-09-27T09:04:00;100397.41;;;26.47
67599;BMP280;62026;39.230;9.122;2022-09-27T09:06:39;100406.53;;;26.96
67599;BMP280;62026;39.230;9.122;2022-09-27T09:09:36;100404.50;;;27.13
67599;BMP280;62026;39.230;9.122;2022-09-27T09:15:31;100381.88;;;26.76
67599;BMP280;62026;39.230;9.122;2022-09-27T09:27:36;100374.63;;;26.48
67599;BMP280;62026;39.230;9.122;2022-09-27T09:30:23;100365.34;;;26.28
67599;BMP280;62026;39.230;9.122;2022-09-27T09:33:24;100366.34;;;26.65
67599;BMP280;62026;39.230;9.122;2022-09-27T09:36:26;100369.59;;;26.17
67599;BMP280;62026;39.230;9.122;2022-09-27T09:39:07;100361.13;;;26.18
67599;BMP280;62026;39.230;9.122;2022-09-27T09:44:48;100361.06;;;25.77
67599;BMP280;62026;39.230;9.122;2022-09-27T09:47:36;100366.25;;;25.82
67599;BMP280;62026;39.230;9.122;2022-09-27T09:50:40;100361.84;;;25.77
67599;BMP280;62026;39.230;9.122;2022-09-27T09:53:33;100357.78;;;25.92
67599;BMP280;62026;39.230;9.122;2022-09-27T09:56:35;100369.69;;;26.20
67599;BMP280;62026;39.230;9.122;2022-09-27T09:59:19;100351.81;;;26.07
67599;BMP280;62026;39.230;9.122;2022-09-27T10:01:49;100365.16;;;25.74
67599;BMP280;62026;39.230;9.122;2022-09-27T10:04:26;100363.13;;;25.71
67599;BMP280;62026;39.230;9.122;2022-09-27T10:06:58;100369.38;;;25.63
67599;BMP280;62026;39.230;9.122;2022-09-27T10:09:29;100357.97;;;25.49
67599;BMP280;62026;39.230;9.122;2022-09-27T10:12:13;100359.88;;;25.48
67599;BMP280;62026;39.230;9.122;2022-09-27T10:14:47;100366.09;;;25.49
67599;BMP280;62026;39.230;9.122;2022-09-27T10:17:19;100364.50;;;25.48
67599;BMP280;62026;39.230;9.122;2022-09-27T10:19:47;100360.84;;;25.44
67599;BMP280;62026;39.230;9.122;2022-09-27T10:22:40;100367.44;;;25.64
67599;BMP280;62026;39.230;9.122;2022-09-27T10:25:20;100354.03;;;25.76
67599;BMP280;62026;39.230;9.122;2022-09-27T10:27:54;100354.28;;;25.62
67599;BMP280;62026;39.230;9.122;2022-09-27T10:30:32;100350.31;;;25.60
67599;BMP280;62026;39.230;9.122;2022-09-27T10:33:15;100352.53;;;25.57
67599;BMP280;62026;39.230;9.122;2022-09-27T10:35:46;100335.69;;;25.90
67599;BMP280;62026;39.230;9.122;2022-09-27T10:38:31;100324.88;;;25.81
67599;BMP280;62026;39.230;9.122;2022-09-27T10:41:34;100339.66;;;25.63
67599;BMP280;62026;39.230;9.122;2022-09-27T10:44:34;100337.25;;;25.62
67599;BMP280;62026;39.230;9.122;2022-09-27T10:47:14;100326.78;;;25.51
67599;BMP280;62026;39.230;9.122;2022-09-27T10:50:05;100337.16;;;25.49
67599;BMP280;62026;39.230;9.122;2022-09-27T10:53:04;100329.66;;;25.55
67599;BMP280;62026;39.230;9.122;2022-09-27T10:55:36;100337.16;;;25.41
67599;BMP280;62026;39.230;9.122;2022-09-27T10:58:03;100335.75;;;25.43
67599;BMP280;62026;39.230;9.122;2022-09-27T11:00:35;100326.94;;;25.55
67599;BMP280;62026;39.230;9.122;2022-09-27T11:03:15;100313.13;;;25.56
67599;BMP280;62026;39.230;9.122;2022-09-27T11:05:42;100328.25;;;25.49
67599;BMP280;62026;39.230;9.122;2022-09-27T11:11:19;100324.44;;;25.41
67599;BMP280;62026;39.230;9.122;2022-09-27T11:14:18;100330.03;;;25.36
67599;BMP280;62026;39.230;9.122;2022-09-27T11:17:18;100330.03;;;25.36
67599;BMP280;62026;39.230;9.122;2022-09-27T11:29:22;100361.75;;;25.01
67599;BMP280;62026;39.230;9.122;2022-09-27T11:32:35;100373.81;;;25.04
67599;BMP280;62026;39.230;9.122;2022-09-27T11:35:36;100379.56;;;25.02
67599;BMP280;62026;39.230;9.122;2022-09-27T11:55:29;100358.41;;;24.79
67599;BMP280;62026;39.230;9.122;2022-09-27T11:58:05;100365.59;;;24.74
67599;BMP280;62026;39.230;9.122;2022-09-27T12:00:47;100362.25;;;24.78
67599;BMP280;62026;39.230;9.122;2022-09-27T12:09:28;100355.72;;;24.79
67599;BMP280;62026;39.230;9.122;2022-09-27T12:12:27;100350.31;;;24.79
67599;BMP280;62026;39.230;9.122;2022-09-27T12:15:29;100342.03;;;24.75
67599;BMP280;62026;39.230;9.122;2022-09-27T12:20:41;100323.63;;;24.68
67599;BMP280;62026;39.230;9.122;2022-09-27T12:23:24;100322.53;;;24.69
67599;BMP280;62026;39.230;9.122;2022-09-27T12:26:19;100328.41;;;24.71
67599;BMP280;62026;39.230;9.122;2022-09-27T12:29:04;100317.94;;;24.70
67599;BMP280;62026;39.230;9.122;2022-09-27T12:31:47;100322.84;;;24.59
67599;BMP280;62026;39.230;9.122;2022-09-27T12:34:31;100325.25;;;24.69
67599;BMP280;62026;39.230;9.122;2022-09-27T12:37:31;100327.13;;;24.69
67599;BMP280;62026;39.230;9.122;2022-09-27T12:40:25;100311.75;;;24.69
67599;BMP280;62026;39.230;9.122;2022-09-27T12:43:16;100284.09;;;24.38
67599;BMP280;62026;39.230;9.122;2022-09-27T12:49:45;100306.97;;;24.66
67599;BMP280;62026;39.230;9.122;2022-09-27T12:52:22;100293.47;;;24.66
67599;BMP280;62026;39.230;9.122;2022-09-27T13:13:35;100277.13;;;24.63
67599;BMP280;62026;39.230;9.122;2022-09-27T13:16:06;100277.59;;;24.65
67599;BMP280;62026;39.230;9.122;2022-09-27T13:18:56;100292.38;;;24.67
67599;BMP280;62026;39.230;9.122;2022-09-27T13:32:34;100271.25;;;24.78
67599;BMP280;62026;39.230;9.122;2022-09-27T13:35:22;100259.03;;;24.63
67599;BMP280;62026;39.230;9.122;2022-09-27T13:37:57;100276.00;;;24.81
67599;BMP280;62026;39.230;9.122;2022-09-27T13:40:38;100266.44;;;24.75
67599;BMP280;62026;39.230;9.122;2022-09-27T13:43:50;100257.56;;;24.74
67599;BMP280;62026;39.230;9.122;2022-09-27T13:46:32;100250.72;;;24.68
67599;BMP280;62026;39.230;9.122;2022-09-27T13:52:00;100249.34;;;24.71
67599;BMP280;62026;39.230;9.122;2022-09-27T13:57:45;100254.25;;;24.78
67599;BMP280;62026;39.230;9.122;2022-09-27T14:00:26;100245.50;;;24.72
67599;BMP280;62026;39.230;9.122;2022-09-27T14:03:01;100238.38;;;24.67
67599;BMP280;62026;39.230;9.122;2022-09-27T14:06:05;100241.50;;;24.87
67599;BMP280;62026;39.230;9.122;2022-09-27T14:11:51;100229.91;;;24.86
67599;BMP280;62026;39.230;9.122;2022-09-27T14:14:28;100238.16;;;24.90
67599;BMP280;62026;39.230;9.122;2022-09-27T14:16:59;100227.81;;;24.92
67599;BMP280;62026;39.230;9.122;2022-09-27T14:19:26;100230.84;;;24.90
67599;BMP280;62026;39.230;9.122;2022-09-27T14:21:53;100224.03;;;24.84
67599;BMP280;62026;39.230;9.122;2022-09-27T14:24:47;100229.91;;;24.86
67599;BMP280;62026;39.230;9.122;2022-09-27T14:27:34;100223.72;;;24.86
67599;BMP280;62026;39.230;9.122;2022-09-27T14:30:24;100224.50;;;24.86
67599;BMP280;62026;39.230;9.122;2022-09-27T14:33:02;100214.19;;;24.80
67599;BMP280;62026;39.230;9.122;2022-09-27T14:35:48;100205.34;;;24.70
67599;BMP280;62026;39.230;9.122;2022-09-27T14:38:34;100220.03;;;24.90
67599;BMP280;62026;39.230;9.122;2022-09-27T14:41:06;100231.34;;;24.84
67599;BMP280;62026;39.230;9.122;2022-09-27T14:43:36;100223.22;;;24.84
67599;BMP280;62026;39.230;9.122;2022-09-27T14:46:06;100222.28;;;24.88
67599;BMP280;62026;39.230;9.122;2022-09-27T14:48:36;100218.44;;;24.89
67599;BMP280;62026;39.230;9.122;2022-09-27T14:51:19;100222.41;;;24.92
67599;BMP280;62026;39.230;9.122;2022-09-27T14:53:53;100228.78;;;24.87
67599;BMP280;62026;39.230;9.122;2022-09-27T14:56:31;100226.88;;;24.88
67599;BMP280;62026;39.230;9.122;2022-09-27T14:59:15;100229.25;;;24.89
67599;BMP280;62026;39.230;9.122;2022-09-27T15:01:49;100208.47;;;24.81
67599;BMP280;62026;39.230;9.122;2022-09-27T15:04:17;100224.63;;;24.90
67599;BMP280;62026;39.230;9.122;2022-09-27T15:06:46;100228.00;;;24.87
67599;BMP280;62026;39.230;9.122;2022-09-27T15:09:14;100223.72;;;24.86
67599;BMP280;62026;39.230;9.122;2022-09-27T15:11:43;100225.31;;;24.87
67599;BMP280;62026;39.230;9.122;2022-09-27T15:14:17;100223.22;;;24.84
67599;BMP280;62026;39.230;9.122;2022-09-27T15:16:50;100231.50;;;24.87
67599;BMP280;62026;39.230;9.122;2022-09-27T15:19:23;100229.25;;;24.89
67599;BMP280;62026;39.230;9.122;2022-09-27T15:21:52;100226.88;;;24.88
67599;BMP280;62026;39.230;9.122;2022-09-27T15:24:44;100231.34;;;24.84
67599;BMP280;62026;39.230;9.122;2022-09-27T15:27:23;100230.53;;;24.83
67599;BMP280;62026;39.230;9.122;2022-09-27T15:29:56;100238.94;;;24.82
67599;BMP280;62026;39.230;9.122;2022-09-27T15:32:27;100242.63;;;24.77
67599;BMP280;62026;39.230;9.122;2022-09-27T15:34:55;100245.00;;;24.79
67599;BMP280;62026;39.230;9.122;2022-09-27T15:37:37;100236.28;;;24.73
67599;BMP280;62026;39.230;9.122;2022-09-27T15:42:56;100251.84;;;24.76
67599;BMP280;62026;39.230;9.122;2022-09-27T15:45:34;100256.13;;;24.68
67599;BMP280;62026;39.230;9.122;2022-09-27T15:48:17;100257.22;;;24.76
67599;BMP280;62026;39.230;9.122;2022-09-27T15:50:43;100254.53;;;24.76
67599;BMP280;62026;39.230;9.122;2022-09-27T15:53:10;100262.19;;;24.74
67599;BMP280;62026;39.230;9.122;2022-09-27T15:55:42;100265.06;;;24.78
67599;BMP280;62026;39.230;9.122;2022-09-27T15:58:14;100268.56;;;24.69
67599;BMP280;62026;39.230;9.122;2022-09-27T16:00:59;100281.56;;;24.67
67599;BMP280;62026;39.230;9.122;2022-09-27T16:03:28;100288.53;;;24.68
67599;BMP280;62026;39.230;9.122;2022-09-27T16:05:56;100287.91;;;24.71
67599;BMP280;62026;39.230;9.122;2022-09-27T16:08:24;100286.34;;;24.70
67599;BMP280;62026;39.230;9.122;2022-09-27T16:10:54;100268.53;;;24.61
67599;BMP280;62026;39.230;9.122;2022-09-27T16:13:22;100250.41;;;24.61
67599;BMP280;62026;39.230;9.122;2022-09-27T16:15:49;100281.41;;;24.72
67599;BMP280;62026;39.230;9.122;2022-09-27T16:18:16;100289.34;;;24.78
67599;BMP280;62026;39.230;9.122;2022-09-27T16:20:42;100274.56;;;24.66
67599;BMP280;62026;39.230;9.122;2022-09-27T16:23:08;100281.06;;;24.65
67599;BMP280;62026;39.230;9.122;2022-09-27T16:25:35;100303.16;;;24.67
67599;BMP280;62026;39.230;9.122;2022-09-27T16:28:03;100297.31;;;24.57
67599;BMP280;62026;39.230;9.122;2022-09-27T16:30:30;100313.03;;;24.63
67599;BMP280;62026;39.230;9.122;2022-09-27T16:32:58;100295.84;;;24.59
67599;BMP280;62026;39.230;9.122;2022-09-27T16:35:25;100296.50;;;24.56
67599;BMP280;62026;39.230;9.122;2022-09-27T16:37:53;100303.16;;;24.50
67599;BMP280;62026;39.230;9.122;2022-09-27T16:40:19;100315.53;;;24.51
67599;BMP280;62026;39.230;9.122;2022-09-27T16:42:48;100312.38;;;24.49
67599;BMP280;62026;39.230;9.122;2022-09-27T16:45:15;100314.28;;;24.49
67599;BMP280;62026;39.230;9.122;2022-09-27T16:47:42;100316.81;;;24.45
67599;BMP280;62026;39.230;9.122;2022-09-27T16:50:12;100318.56;;;24.41
67599;BMP280;62026;39.230;9.122;2022-09-27T16:52:57;100306.66;;;24.42
67599;BMP280;62026;39.230;9.122;2022-09-27T16:55:25;100327.28;;;24.38
67599;BMP280;62026;39.230;9.122;2022-09-27T16:57:56;100311.41;;;24.28
67599;BMP280;62026;39.230;9.122;2022-09-27T17:00:23;100331.41;;;24.35
67599;BMP280;62026;39.230;9.122;2022-09-27T17:02:49;100320.59;;;24.27
67599;BMP280;62026;39.230;9.122;2022-09-27T17:05:15;100346.94;;;24.30
67599;BMP280;62026;39.230;9.122;2022-09-27T17:07:41;100330.28;;;24.19
67599;BMP280;62026;39.230;9.122;2022-09-27T17:10:08;100354.09;;;24.26
67599;BMP280;62026;39.230;9.122;2022-09-27T17:12:34;100347.25;;;24.20
67599;BMP280;62026;39.230;9.122;2022-09-27T17:15:00;100360.75;;;24.20
67599;BMP280;62026;39.230;9.122;2022-09-27T17:17:27;100357.59;;;24.26
67599;BMP280;62026;39.230;9.122;2022-09-27T17:19:53;100361.53;;;24.20